Flight Track Log - Related Links

Times and Time Zones

All times are in EDT time to prevent confusion due to time zone crossing. See the N101PG flight status page for this flight to view local times or setup timezone preferences in your user account.

Time Position Orientation Groundspeed Altitude Reporting Facility
EDT Latitude Longitude Course Direction KTS MPH feet Rate Location/Type
Sat 10:29:38 PM 44.3078 -121.3458 289° West 264 304 11,800  Level Seattle Center
Sat 10:30:39 PM 44.3003 -121.4619 265° West 303 349 14,700 2,705 Climbing Seattle Center
Sat 10:31:00 PM 44.2247 -121.6279 266° West  Level FlightAware Approximate
Sat 10:31:40 PM 44.2881 -121.5986 263° West 354 407 17,300  Level Seattle Center
Sat 10:32:00 PM 44.2193 -121.7271 266° West  Level FlightAware Approximate
Sat 10:32:40 PM 44.2758 -121.7314 263° West 368 423 18,000  Level Seattle Center
Sat 10:33:00 PM 44.2137 -121.8263 266° West  Level FlightAware Approximate
Sat 10:33:41 PM 44.2589 -121.9011 262° West 368 423 18,000  Level Seattle Center
Sat 10:34:42 PM 44.2478 -122.0264 263° West 369 425 18,000  Level Seattle Center
Sat 10:35:43 PM 44.2339 -122.1714 262° West 374 430 18,000  Level Seattle Center
Sat 10:36:44 PM 44.2200 -122.3169 262° West 381 438 18,000 -393 Level Seattle Center
Sat 10:37:45 PM 44.2033 -122.4611 261° West 378 435 17,200 -1,770 Descending Seattle Center
Sat 10:38:46 PM 44.1864 -122.6261 262° West 360 414 14,400 -2,876 Descending Seattle Center
Sat 10:39:46 PM 44.1719 -122.7631 262° West 359 413 11,400 -3,025 Descending Seattle Center
Sat 10:40:47 PM 44.1606 -122.8767 262° West 286 329 8,300 -2,902 Descending Seattle Center
Sat 10:41:48 PM 44.1719 -122.9808 279° West 273 314 5,500 -2,164 Descending Seattle Center
Sat 10:42:49 PM 44.1817 -123.0789 278° West 255 293 3,900 -1,279 Descending Seattle Center
Sat 10:43:50 PM 44.1894 -123.1575 278° West 198 228 2,900 -1,082 Descending Seattle Center
Sat 10:44:51 PM 44.1814 -123.2125 258° West 146 168 1,700 -1,091 Descending Seattle Center
Sat 10:45:51 PM 44.1450 -123.2192 187° South 133 153 700 -645 Descending Seattle Center
Sat 10:46:52 PM 44.1211 -123.2181 178° South 76 87 400 -197 Descending Seattle Center
Sat 10:47:53 PM 44.1189 -123.2158 144° Southeast 17 20 300 -98 Descending Seattle Center

Login

Don't have an account? Register now (free) for customized features, flight alerts, and more!